Time;durP1;ratioP1;P1;durP2;ratioP2;P2;SDS_P1;SDS_P2;PMS_P1;PMS_P2;Temp;Humidity;BMP_temperature;BMP_pressure;BME280_temperature;BME280_humidity;BME280_pressure;Samples;Min_cycle;Max_cycle;Signal;HPM_P1;HPM_P2
2021/06/02 00:02:06;;;;;;;12.30;4.68;;;;;;;;;;5025869;28;20287;-71
2021/06/02 00:04:33;;;;;;;8.57;4.50;;;;;;;;;;5025925;28;20216;-71
2021/06/02 00:07:04;;;;;;;5.72;4.25;;;;;;;;;;5021679;28;20185;-71
2021/06/02 00:09:30;;;;;;;5.68;4.97;;;;;;;;;;5028377;28;20176;-69
2021/06/02 00:11:58;;;;;;;5.82;4.97;;;;;;;;;;5023752;28;20188;-69
2021/06/02 00:14:25;;;;;;;6.57;4.38;;;;;;;;;;5026018;28;20212;-69
2021/06/02 00:16:52;;;;;;;5.53;4.38;;;;;;;;;;5026005;28;20207;-69
2021/06/02 00:19:18;;;;;;;6.45;4.90;;;;;;;;;;5024885;28;20242;-69
2021/06/02 00:21:44;;;;;;;4.70;4.30;;;;;;;;;;5024520;28;20188;-69
2021/06/02 00:24:10;;;;;;;5.28;4.32;;;;;;;;;;5025823;28;20180;-70
2021/06/02 00:26:37;;;;;;;6.97;4.32;;;;;;;;;;5010805;28;20274;-69
2021/06/02 00:29:04;;;;;;;5.00;4.40;;;;;;;;;;5023081;28;20192;-69
2021/06/02 00:31:30;;;;;;;5.13;4.15;;;;;;;;;;5025279;28;20192;-69
2021/06/02 00:33:57;;;;;;;5.50;4.63;;;;;;;;;;5025380;28;20188;-69
2021/06/02 00:36:23;;;;;;;4.70;4.30;;;;;;;;;;5025001;28;20244;-69
2021/06/02 00:38:51;;;;;;;5.97;4.75;;;;;;;;;;5023785;28;20200;-69
2021/06/02 00:41:17;;;;;;;6.88;5.03;;;;;;;;;;5022960;28;20185;-69
2021/06/02 00:43:43;;;;;;;7.07;5.22;;;;;;;;;;5025744;28;20184;-69
2021/06/02 00:46:10;;;;;;;8.60;4.70;;;;;;;;;;5020301;28;20216;-69
2021/06/02 00:48:38;;;;;;;5.43;4.93;;;;;;;;;;5022781;28;20235;-69
2021/06/02 00:51:04;;;;;;;7.35;5.32;;;;;;;;;;5029571;28;20717;-68
2021/06/02 00:53:30;;;;;;;5.93;4.78;;;;;;;;;;5022917;28;20187;-69
2021/06/02 00:56:04;;;;;;;6.20;5.10;;;;;;;;;;5024163;28;20665;-68
2021/06/02 00:58:32;;;;;;;5.40;4.65;;;;;;;;;;5023815;28;20416;-69
2021/06/02 01:00:58;;;;;;;5.47;4.63;;;;;;;;;;5019069;28;20322;-69
2021/06/02 01:03:27;;;;;;;5.90;5.30;;;;;;;;;;5020668;28;20218;-69
2021/06/02 01:05:54;;;;;;;6.10;4.93;;;;;;;;;;5022563;28;20211;-69
2021/06/02 01:08:21;;;;;;;5.43;5.03;;;;;;;;;;5024317;28;20806;-69
2021/06/02 01:10:48;;;;;;;6.07;5.47;;;;;;;;;;5005144;28;20191;-69
2021/06/02 01:13:15;;;;;;;5.88;5.05;;;;;;;;;;5021454;28;20180;-69
2021/06/02 01:15:41;;;;;;;6.00;5.43;;;;;;;;;;5018080;28;21043;-69
2021/06/02 01:18:10;;;;;;;5.70;5.00;;;;;;;;;;5022705;28;20196;-68
2021/06/02 01:20:37;;;;;;;8.05;5.00;;;;;;;;;;5019148;28;20203;-69
2021/06/02 01:23:04;;;;;;;6.72;5.43;;;;;;;;;;5027651;28;20585;-69
2021/06/02 01:25:30;;;;;;;7.47;5.57;;;;;;;;;;5023009;28;20660;-69
2021/06/02 01:27:56;;;;;;;6.28;5.30;;;;;;;;;;5024434;28;20187;-69
2021/06/02 01:30:23;;;;;;;7.90;5.10;;;;;;;;;;5027414;28;20716;-68
2021/06/02 01:33:00;;;;;;;6.07;5.28;;;;;;;;;;5025837;28;20214;-68
2021/06/02 01:35:45;;;;;;;6.50;5.80;;;;;;;;;;5022201;28;20211;-69
2021/06/02 01:38:30;;;;;;;9.93;6.67;;;;;;;;;;5024979;28;20188;-69
2021/06/02 01:41:19;;;;;;;7.97;6.53;;;;;;;;;;5027642;28;20262;-69
2021/06/02 01:43:51;;;;;;;8.67;6.63;;;;;;;;;;4996780;28;20192;-69
2021/06/02 01:46:29;;;;;;;7.43;6.73;;;;;;;;;;5023755;28;20227;-69
2021/06/02 01:49:14;;;;;;;8.50;6.40;;;;;;;;;;5025779;28;20692;-69
2021/06/02 01:51:58;;;;;;;6.87;6.17;;;;;;;;;;5019362;28;20184;-69
2021/06/02 01:54:45;;;;;;;8.45;7.75;;;;;;;;;;5026219;28;20617;-69
2021/06/02 01:57:20;;;;;;;10.63;7.30;;;;;;;;;;5011124;28;20287;-69
2021/06/02 01:59:52;;;;;;;6.80;6.10;;;;;;;;;;5021486;28;20191;-69
2021/06/02 02:02:31;;;;;;;7.10;6.40;;;;;;;;;;5020372;28;20200;-69
2021/06/02 02:04:57;;;;;;;6.87;6.10;;;;;;;;;;5026679;28;20211;-69
2021/06/02 02:07:23;;;;;;;7.53;6.53;;;;;;;;;;5024312;28;20194;-69
2021/06/02 02:09:55;;;;;;;7.23;5.80;;;;;;;;;;5024340;28;20180;-69
2021/06/02 02:12:39;;;;;;;8.83;5.30;;;;;;;;;;5027471;28;20238;-69
2021/06/02 02:15:08;;;;;;;8.63;5.50;;;;;;;;;;5024735;28;20226;-69
2021/06/02 02:17:55;;;;;;;7.03;5.87;;;;;;;;;;5024018;28;20191;-69
2021/06/02 02:20:24;;;;;;;6.57;5.13;;;;;;;;;;5017730;28;20183;-69
2021/06/02 02:22:52;;;;;;;5.93;5.30;;;;;;;;;;5026654;28;20180;-69
2021/06/02 02:25:25;;;;;;;5.83;5.33;;;;;;;;;;5023240;28;20216;-69
2021/06/02 02:27:54;;;;;;;5.57;5.07;;;;;;;;;;5024621;28;20780;-69
2021/06/02 02:30:37;;;;;;;5.97;5.37;;;;;;;;;;5025955;28;20247;-69
2021/06/02 02:33:03;;;;;;;5.53;5.03;;;;;;;;;;5028400;28;20190;-69
2021/06/02 02:35:56;;;;;;;5.77;5.10;;;;;;;;;;5021981;28;20291;-69
2021/06/02 02:38:33;;;;;;;6.43;5.53;;;;;;;;;;5009962;28;20211;-69
2021/06/02 02:41:18;;;;;;;6.87;6.20;;;;;;;;;;5023078;28;20272;-69
2021/06/02 02:43:44;;;;;;;6.30;5.30;;;;;;;;;;5028684;28;20184;-69
2021/06/02 02:46:10;;;;;;;6.80;5.13;;;;;;;;;;5022635;28;20212;-70
2021/06/02 02:48:42;;;;;;;6.03;5.53;;;;;;;;;;5024748;28;21117;-69
2021/06/02 02:51:15;;;;;;;8.40;5.40;;;;;;;;;;5024618;28;20181;-69
2021/06/02 02:53:45;;;;;;;6.30;5.03;;;;;;;;;;5025983;28;20837;-69
2021/06/02 02:56:26;;;;;;;7.87;5.13;;;;;;;;;;5023825;28;20612;-68
2021/06/02 02:58:54;;;;;;;5.10;4.70;;;;;;;;;;5025758;28;20194;-69
2021/06/02 03:01:42;;;;;;;6.03;4.73;;;;;;;;;;5024720;28;20191;-68
2021/06/02 03:04:12;;;;;;;4.90;4.17;;;;;;;;;;5025225;28;20291;-68
2021/06/02 03:06:42;;;;;;;5.97;4.40;;;;;;;;;;5021483;28;20259;-68
2021/06/02 03:09:31;;;;;;;7.03;4.33;;;;;;;;;;5024507;28;20181;-68
2021/06/02 03:12:05;;;;;;;6.87;4.43;;;;;;;;;;5017052;28;20200;-68
2021/06/02 03:14:46;;;;;;;6.90;4.13;;;;;;;;;;5025468;28;20187;-69
2021/06/02 03:17:21;;;;;;;5.10;4.27;;;;;;;;;;5024819;28;20274;-68
2021/06/02 03:19:47;;;;;;;4.47;4.07;;;;;;;;;;5013379;28;20207;-68
2021/06/02 03:22:18;;;;;;;4.97;4.57;;;;;;;;;;5028069;28;20248;-68
2021/06/02 03:24:47;;;;;;;5.83;5.07;;;;;;;;;;5025387;28;20282;-69
2021/06/02 03:27:17;;;;;;;5.60;4.73;;;;;;;;;;5023159;28;20276;-68
2021/06/02 03:29:43;;;;;;;5.57;4.93;;;;;;;;;;5028090;28;20195;-68
2021/06/02 03:32:29;;;;;;;8.63;5.53;;;;;;;;;;5030357;28;20197;-68
2021/06/02 03:34:59;;;;;;;6.37;4.97;;;;;;;;;;5019060;28;20293;-68
2021/06/02 03:37:32;;;;;;;5.13;4.67;;;;;;;;;;5028561;28;20200;-69
2021/06/02 03:40:03;;;;;;;6.50;4.63;;;;;;;;;;5028726;28;20216;-68
2021/06/02 03:42:48;;;;;;;7.97;4.80;;;;;;;;;;5023613;28;20200;-69
2021/06/02 03:45:32;;;;;;;4.80;4.30;;;;;;;;;;5027005;28;20212;-68
2021/06/02 03:48:04;;;;;;;6.73;4.70;;;;;;;;;;5013912;28;20192;-67
2021/06/02 03:50:33;;;;;;;6.13;4.63;;;;;;;;;;5033717;28;20208;-69
2021/06/02 03:53:05;;;;;;;5.50;4.97;;;;;;;;;;5028163;28;20219;-68
2021/06/02 03:55:46;;;;;;;7.70;4.33;;;;;;;;;;5026697;28;20267;-69
2021/06/02 03:58:18;;;;;;;6.37;4.80;;;;;;;;;;5026840;28;20201;-68
2021/06/02 04:00:48;;;;;;;5.33;4.83;;;;;;;;;;5030534;28;20187;-68
2021/06/02 04:03:21;;;;;;;5.73;4.60;;;;;;;;;;5023254;28;20192;-68
2021/06/02 04:06:08;;;;;;;6.20;5.20;;;;;;;;;;5027084;28;20246;-68
2021/06/02 04:08:48;;;;;;;6.43;4.93;;;;;;;;;;5025336;28;20227;-68
2021/06/02 04:11:14;;;;;;;7.33;5.40;;;;;;;;;;5026634;28;20196;-68
2021/06/02 04:13:57;;;;;;;14.90;6.43;;;;;;;;;;5025652;28;20185;-69
2021/06/02 04:16:29;;;;;;;7.47;5.63;;;;;;;;;;5023057;28;20208;-69
2021/06/02 04:18:56;;;;;;;16.90;6.00;;;;;;;;;;5026351;28;20196;-68
2021/06/02 04:21:24;;;;;;;9.53;6.60;;;;;;;;;;5025679;28;20270;-68
2021/06/02 04:23:50;;;;;;;11.57;6.33;;;;;;;;;;5023712;28;20224;-68
2021/06/02 04:26:17;;;;;;;14.03;6.40;;;;;;;;;;5024897;28;20228;-68
2021/06/02 04:28:43;;;;;;;8.47;6.00;;;;;;;;;;5030178;28;20226;-69
2021/06/02 04:31:10;;;;;;;15.53;6.00;;;;;;;;;;5025361;28;20699;-68
2021/06/02 04:33:37;;;;;;;6.27;4.73;;;;;;;;;;5027626;28;20224;-69
2021/06/02 04:36:05;;;;;;;6.70;4.80;;;;;;;;;;5027977;28;20701;-68
2021/06/02 04:38:31;;;;;;;7.17;4.37;;;;;;;;;;5025859;28;20264;-69
2021/06/02 04:41:07;;;;;;;8.60;5.50;;;;;;;;;;5022485;28;20192;-68
2021/06/02 04:43:40;;;;;;;5.83;5.23;;;;;;;;;;5024630;28;20216;-68
2021/06/02 04:46:07;;;;;;;8.57;5.40;;;;;;;;;;5026682;28;20212;-68
2021/06/02 04:48:33;;;;;;;8.47;5.03;;;;;;;;;;5025795;28;20184;-68
2021/06/02 04:51:11;;;;;;;10.10;4.60;;;;;;;;;;5024826;28;20730;-69
2021/06/02 04:53:56;;;;;;;5.30;4.80;;;;;;;;;;5024180;28;20208;-69
2021/06/02 04:56:34;;;;;;;10.53;5.50;;;;;;;;;;5027167;28;20234;-68
2021/06/02 04:59:12;;;;;;;5.60;5.10;;;;;;;;;;5026580;28;20279;-69
2021/06/02 05:01:47;;;;;;;7.80;5.53;;;;;;;;;;5023351;28;20196;-67
2021/06/02 05:04:25;;;;;;;6.13;5.63;;;;;;;;;;5023710;28;20191;-68
2021/06/02 05:06:57;;;;;;;5.45;4.95;;;;;;;;;;5018776;28;20203;-68
2021/06/02 05:09:42;;;;;;;7.57;5.90;;;;;;;;;;5025734;28;20269;-68
2021/06/02 05:12:24;;;;;;;7.07;6.38;;;;;;;;;;5020595;28;20189;-67
2021/06/02 05:15:06;;;;;;;6.22;5.63;;;;;;;;;;5021887;28;20216;-68
2021/06/02 05:17:36;;;;;;;6.47;5.80;;;;;;;;;;5023742;28;20192;-69
2021/06/02 05:20:24;;;;;;;8.20;5.40;;;;;;;;;;5018540;28;20271;-69
2021/06/02 05:22:50;;;;;;;7.20;6.47;;;;;;;;;;5021375;28;20204;-69
2021/06/02 05:25:36;;;;;;;9.38;6.05;;;;;;;;;;5026186;28;20212;-69
2021/06/02 05:28:20;;;;;;;12.13;6.00;;;;;;;;;;5025575;28;20208;-69
2021/06/02 05:30:46;;;;;;;6.60;5.40;;;;;;;;;;5024894;28;20188;-69
2021/06/02 05:33:12;;;;;;;5.40;4.90;;;;;;;;;;5024425;28;20198;-68
2021/06/02 05:35:49;;;;;;;5.72;5.05;;;;;;;;;;5020891;28;20251;-69
2021/06/02 05:38:34;;;;;;;10.93;6.05;;;;;;;;;;5025167;28;20184;-68
2021/06/02 05:41:05;;;;;;;7.55;4.85;;;;;;;;;;5020189;28;20191;-69
2021/06/02 05:43:37;;;;;;;7.90;5.53;;;;;;;;;;5022704;28;20189;-69
2021/06/02 05:46:03;;;;;;;8.00;6.45;;;;;;;;;;5024939;28;20283;-68
2021/06/02 05:48:49;;;;;;;8.85;6.70;;;;;;;;;;5023422;28;20238;-68
2021/06/02 05:51:15;;;;;;;7.95;7.10;;;;;;;;;;5021673;28;20222;-68
2021/06/02 05:53:50;;;;;;;10.15;7.22;;;;;;;;;;5024987;28;20266;-70
2021/06/02 05:56:19;;;;;;;13.50;6.32;;;;;;;;;;5026075;28;20223;-71
2021/06/02 05:59:05;;;;;;;10.55;5.40;;;;;;;;;;5025847;28;20215;-67
2021/06/02 06:01:53;;;;;;;4.75;3.78;;;;;;;;;;5022376;28;20231;-70
2021/06/02 06:04:31;;;;;;;5.40;3.58;;;;;;;;;;5016868;28;20184;-71
2021/06/02 06:07:16;;;;;;;4.30;3.42;;;;;;;;;;5021511;28;20172;-71
2021/06/02 06:09:57;;;;;;;6.75;3.72;;;;;;;;;;5023969;28;20234;-71
2021/06/02 06:12:35;;;;;;;5.20;3.67;;;;;;;;;;5020191;28;20247;-71
2021/06/02 06:15:01;;;;;;;6.03;3.60;;;;;;;;;;5019237;28;20547;-70
2021/06/02 06:17:40;;;;;;;3.85;3.45;;;;;;;;;;5028081;28;20184;-71
2021/06/02 06:20:24;;;;;;;6.07;3.67;;;;;;;;;;5021486;28;20682;-70
2021/06/02 06:22:53;;;;;;;5.45;3.67;;;;;;;;;;5018571;28;20196;-70
2021/06/02 06:25:22;;;;;;;4.38;3.63;;;;;;;;;;5026688;28;20206;-70
2021/06/02 06:27:48;;;;;;;7.10;3.83;;;;;;;;;;5026220;28;20241;-71
2021/06/02 06:30:49;;;;;;;4.63;3.38;;;;;;;;;;5024368;28;20267;-69
2021/06/02 06:33:16;;;;;;;3.83;3.53;;;;;;;;;;4942345;28;20623;-71
2021/06/02 06:35:44;;;;;;;6.05;3.30;;;;;;;;;;4934022;28;20226;-70
2021/06/02 06:38:12;;;;;;;4.45;3.50;;;;;;;;;;4958918;28;20254;-70
2021/06/02 06:40:39;;;;;;;9.93;3.97;;;;;;;;;;4945649;28;20241;-70
2021/06/02 06:43:07;;;;;;;4.53;3.38;;;;;;;;;;4945729;28;20199;-70
2021/06/02 06:45:38;;;;;;;3.60;3.30;;;;;;;;;;4949159;28;20226;-70
2021/06/02 06:48:10;;;;;;;6.13;3.70;;;;;;;;;;4947033;28;20674;-70
2021/06/02 06:50:36;;;;;;;3.47;3.17;;;;;;;;;;4946865;28;20366;-70
2021/06/02 06:53:03;;;;;;;4.88;3.90;;;;;;;;;;4949522;28;20320;-70
2021/06/02 06:55:29;;;;;;;7.90;3.70;;;;;;;;;;4954238;28;20234;-71
2021/06/02 06:57:56;;;;;;;4.10;3.67;;;;;;;;;;4947913;28;20274;-69
2021/06/02 07:00:22;;;;;;;9.48;3.55;;;;;;;;;;4944968;28;20191;-68
2021/06/02 07:02:48;;;;;;;3.90;3.08;;;;;;;;;;4957669;28;20674;-70
2021/06/02 07:05:15;;;;;;;4.97;2.80;;;;;;;;;;4946615;28;20214;-71
2021/06/02 07:07:42;;;;;;;6.38;2.72;;;;;;;;;;4953860;28;20206;-70
2021/06/02 07:10:10;;;;;;;3.33;2.78;;;;;;;;;;5031034;28;20780;-70
2021/06/02 07:12:36;;;;;;;4.47;3.42;;;;;;;;;;5027998;28;20209;-70
2021/06/02 07:15:04;;;;;;;4.68;3.38;;;;;;;;;;5026538;28;20734;-70
2021/06/02 07:17:31;;;;;;;3.33;3.13;;;;;;;;;;5028223;28;20185;-70
2021/06/02 07:20:00;;;;;;;4.75;3.50;;;;;;;;;;5028880;28;20297;-70
2021/06/02 07:22:27;;;;;;;4.63;3.47;;;;;;;;;;5027712;28;20766;-70
2021/06/02 07:24:54;;;;;;;4.80;3.22;;;;;;;;;;5028128;28;20637;-70
2021/06/02 07:27:20;;;;;;;3.45;3.15;;;;;;;;;;5030003;28;20192;-70
2021/06/02 07:29:46;;;;;;;3.50;3.20;;;;;;;;;;5027263;28;20187;-70
2021/06/02 07:32:12;;;;;;;3.42;3.13;;;;;;;;;;5026524;28;20189;-70
2021/06/02 07:34:38;;;;;;;4.30;3.28;;;;;;;;;;5026714;28;20291;-67
2021/06/02 07:37:04;;;;;;;5.20;3.03;;;;;;;;;;5029037;28;20184;-70
2021/06/02 07:39:30;;;;;;;4.30;3.08;;;;;;;;;;5022795;28;20185;-68
2021/06/02 07:41:56;;;;;;;5.25;3.38;;;;;;;;;;5027553;28;20729;-69
2021/06/02 07:44:22;;;;;;;6.07;3.40;;;;;;;;;;5029855;28;20833;-68
2021/06/02 07:46:48;;;;;;;8.27;3.45;;;;;;;;;;5025354;28;20204;-68
2021/06/02 07:49:14;;;;;;;4.57;3.22;;;;;;;;;;5030127;28;20561;-68
2021/06/02 07:51:40;;;;;;;5.32;3.35;;;;;;;;;;5029117;28;20176;-68
2021/06/02 07:54:07;;;;;;;7.28;2.85;;;;;;;;;;5024368;28;20613;-68
2021/06/02 07:56:33;;;;;;;5.07;2.85;;;;;;;;;;5025104;28;20239;-69
2021/06/02 07:58:59;;;;;;;3.42;2.75;;;;;;;;;;5030559;28;20678;-69
2021/06/02 08:01:26;;;;;;;4.15;2.97;;;;;;;;;;5025835;28;20196;-69
2021/06/02 08:03:52;;;;;;;3.08;2.63;;;;;;;;;;5028108;28;20184;-70
2021/06/02 08:06:18;;;;;;;6.82;2.70;;;;;;;;;;5028449;28;20217;-69
2021/06/02 08:08:44;;;;;;;5.35;2.67;;;;;;;;;;5028578;28;20180;-69
2021/06/02 08:11:10;;;;;;;3.38;2.47;;;;;;;;;;5025773;28;20184;-69
2021/06/02 08:13:36;;;;;;;3.28;2.10;;;;;;;;;;5026879;28;20187;-69
2021/06/02 08:16:02;;;;;;;6.45;2.30;;;;;;;;;;5024039;28;20866;-70
2021/06/02 08:18:28;;;;;;;3.58;2.35;;;;;;;;;;5023412;28;20207;-70
2021/06/02 08:20:56;;;;;;;2.47;2.10;;;;;;;;;;5024339;28;20180;-69
2021/06/02 08:23:22;;;;;;;3.95;1.83;;;;;;;;;;5023362;28;20701;-69
2021/06/02 08:25:49;;;;;;;6.32;2.55;;;;;;;;;;5027073;28;20226;-70
2021/06/02 08:28:15;;;;;;;3.50;2.10;;;;;;;;;;5024618;28;20698;-69
2021/06/02 08:30:41;;;;;;;2.88;2.10;;;;;;;;;;5028400;28;20191;-69
2021/06/02 08:33:08;;;;;;;4.93;2.22;;;;;;;;;;5028050;28;20224;-69
2021/06/02 08:35:34;;;;;;;3.45;1.90;;;;;;;;;;5023609;28;20196;-70
2021/06/02 08:38:01;;;;;;;2.75;1.90;;;;;;;;;;5016519;28;20740;-70
2021/06/02 08:40:27;;;;;;;7.03;2.10;;;;;;;;;;5029168;28;20800;-70
2021/06/02 08:42:54;;;;;;;3.03;1.80;;;;;;;;;;5018719;28;20224;-67
2021/06/02 08:45:20;;;;;;;3.80;2.30;;;;;;;;;;5017151;28;20260;-68
2021/06/02 08:47:48;;;;;;;3.67;1.52;;;;;;;;;;5029628;28;20176;-70
2021/06/02 08:50:15;;;;;;;16.25;1.63;;;;;;;;;;5005561;28;20577;-70
2021/06/02 08:52:41;;;;;;;3.58;1.45;;;;;;;;;;5023737;28;20184;-68
2021/06/02 08:55:08;;;;;;;4.15;1.70;;;;;;;;;;5027383;28;20219;-67
2021/06/02 08:57:38;;;;;;;6.53;1.40;;;;;;;;;;5023049;28;20188;-68
2021/06/02 09:00:06;;;;;;;5.55;1.40;;;;;;;;;;5019636;28;20332;-68
2021/06/02 09:02:32;;;;;;;3.25;1.58;;;;;;;;;;5020696;28;20180;-67
2021/06/02 09:04:58;;;;;;;2.10;1.27;;;;;;;;;;5018674;28;20581;-68
2021/06/02 09:07:25;;;;;;;3.55;1.40;;;;;;;;;;5023407;28;20194;-69
2021/06/02 09:09:52;;;;;;;3.90;1.27;;;;;;;;;;5026017;28;20542;-69
2021/06/02 09:12:31;;;;;;;3.08;1.05;;;;;;;;;;5026519;28;20198;-68
2021/06/02 09:15:00;;;;;;;5.07;1.30;;;;;;;;;;5025469;28;20211;-69
2021/06/02 09:17:26;;;;;;;2.72;1.30;;;;;;;;;;5026121;28;20183;-68
2021/06/02 09:19:55;;;;;;;2.75;1.20;;;;;;;;;;5024799;28;20187;-68
2021/06/02 09:22:22;;;;;;;2.53;1.00;;;;;;;;;;5020660;28;20184;-69
2021/06/02 09:24:51;;;;;;;3.53;1.08;;;;;;;;;;5019508;28;20274;-68
2021/06/02 09:27:18;;;;;;;2.40;0.90;;;;;;;;;;5020671;28;20214;-69
2021/06/02 09:30:03;;;;;;;4.28;1.40;;;;;;;;;;5028253;28;20668;-68
2021/06/02 09:32:29;;;;;;;5.68;1.15;;;;;;;;;;5021905;28;20184;-68
2021/06/02 09:35:01;;;;;;;4.07;2.50;;;;;;;;;;5017215;28;20289;-68
2021/06/02 09:37:27;;;;;;;1.85;1.02;;;;;;;;;;5028949;28;20564;-69
2021/06/02 09:39:53;;;;;;;1.55;1.20;;;;;;;;;;5024482;28;20181;-68
2021/06/02 09:42:26;;;;;;;2.75;1.13;;;;;;;;;;5022230;28;20203;-69
2021/06/02 09:45:01;;;;;;;3.10;1.40;;;;;;;;;;5022384;28;20234;-69
2021/06/02 09:47:40;;;;;;;5.88;1.48;;;;;;;;;;5024446;28;20650;-69
2021/06/02 09:50:10;;;;;;;3.90;1.75;;;;;;;;;;5019511;28;20238;-68
2021/06/02 09:52:39;;;;;;;1.48;0.90;;;;;;;;;;5000487;28;20185;-69
2021/06/02 09:55:11;;;;;;;1.88;1.20;;;;;;;;;;5021693;28;20311;-68
2021/06/02 09:57:37;;;;;;;2.10;1.02;;;;;;;;;;5023424;28;20180;-68
2021/06/02 10:00:04;;;;;;;3.33;1.20;;;;;;;;;;5021830;28;20541;-68
2021/06/02 10:02:30;;;;;;;1.92;1.20;;;;;;;;;;5025102;28;20262;-68
2021/06/02 10:05:05;;;;;;;3.58;1.00;;;;;;;;;;5021360;28;20298;-68
2021/06/02 10:07:31;;;;;;;1.45;0.95;;;;;;;;;;5021629;28;20179;-68
2021/06/02 10:10:11;;;;;;;2.50;0.93;;;;;;;;;;5022315;28;20688;-68
2021/06/02 10:12:37;;;;;;;2.05;1.00;;;;;;;;;;5022034;28;20266;-69
2021/06/02 10:15:05;;;;;;;1.80;1.02;;;;;;;;;;5024610;28;20199;-68
2021/06/02 10:17:32;;;;;;;3.88;1.00;;;;;;;;;;5022412;28;20202;-68
2021/06/02 10:19:58;;;;;;;3.22;1.17;;;;;;;;;;5023685;28;20282;-68
2021/06/02 10:22:29;;;;;;;2.28;1.13;;;;;;;;;;5024761;28;20557;-68
2021/06/02 10:24:58;;;;;;;2.88;1.05;;;;;;;;;;5021947;28;20230;-69
2021/06/02 10:27:24;;;;;;;7.03;0.90;;;;;;;;;;5024628;28;20184;-68
2021/06/02 10:29:51;;;;;;;3.85;1.20;;;;;;;;;;5029676;28;20544;-68
2021/06/02 10:32:18;;;;;;;2.63;1.00;;;;;;;;;;5029403;28;20187;-69
2021/06/02 10:34:44;;;;;;;2.45;1.05;;;;;;;;;;5029896;28;20194;-68
2021/06/02 10:37:14;;;;;;;6.13;1.02;;;;;;;;;;5029745;28;20249;-68
2021/06/02 10:39:41;;;;;;;5.10;1.40;;;;;;;;;;5032559;28;20234;-68
2021/06/02 10:42:17;;;;;;;2.40;1.20;;;;;;;;;;5026892;28;20528;-69
2021/06/02 10:44:46;;;;;;;5.78;1.02;;;;;;;;;;5025019;28;20214;-68
2021/06/02 10:47:13;;;;;;;3.38;1.13;;;;;;;;;;5030892;28;20211;-68
2021/06/02 10:49:39;;;;;;;2.00;0.85;;;;;;;;;;5027365;28;20184;-69
2021/06/02 10:52:05;;;;;;;5.55;1.02;;;;;;;;;;5026294;28;20611;-69
2021/06/02 10:54:37;;;;;;;4.35;0.77;;;;;;;;;;5031227;28;20180;-69
2021/06/02 10:57:03;;;;;;;1.73;1.30;;;;;;;;;;5028618;28;20545;-69
2021/06/02 10:59:30;;;;;;;2.67;1.00;;;;;;;;;;5029409;28;20188;-68
2021/06/02 11:02:07;;;;;;;3.58;1.20;;;;;;;;;;5029030;28;20225;-68
2021/06/02 11:04:34;;;;;;;2.55;0.98;;;;;;;;;;5030025;28;20187;-68
2021/06/02 11:07:20;;;;;;;3.25;0.98;;;;;;;;;;5027019;28;20225;-68
2021/06/02 11:10:10;;;;;;;3.10;1.00;;;;;;;;;;5029310;28;20179;-68
2021/06/02 11:12:55;;;;;;;1.83;1.10;;;;;;;;;;5017538;28;20200;-68
2021/06/02 11:15:37;;;;;;;2.47;1.02;;;;;;;;;;5028544;28;20720;-68
2021/06/02 11:18:09;;;;;;;2.08;1.23;;;;;;;;;;5029565;28;20187;-68
2021/06/02 11:20:45;;;;;;;3.50;1.40;;;;;;;;;;5011056;28;20187;-67
2021/06/02 11:23:12;;;;;;;5.10;1.30;;;;;;;;;;5027897;28;20961;-68
2021/06/02 11:25:42;;;;;;;5.82;1.23;;;;;;;;;;5029865;28;20286;-68
2021/06/02 11:28:10;;;;;;;3.72;1.00;;;;;;;;;;5030230;28;20293;-68
2021/06/02 11:30:36;;;;;;;2.53;1.08;;;;;;;;;;5028339;28;20195;-68
2021/06/02 11:33:10;;;;;;;1.58;0.93;;;;;;;;;;5030185;28;20199;-69
2021/06/02 11:36:08;;;;;;;6.47;1.60;;;;;;;;;;5027556;28;20200;-68
2021/06/02 11:38:36;;;;;;;3.58;1.17;;;;;;;;;;4971959;28;20201;-68
2021/06/02 11:41:02;;;;;;;1.95;0.95;;;;;;;;;;4969283;28;20205;-68
2021/06/02 11:43:28;;;;;;;3.67;1.40;;;;;;;;;;4986065;28;20224;-68
2021/06/02 11:45:56;;;;;;;5.45;1.58;;;;;;;;;;4988482;28;20232;-68
2021/06/02 11:48:23;;;;;;;2.42;1.00;;;;;;;;;;4982040;28;20608;-69
2021/06/02 11:50:50;;;;;;;4.75;1.30;;;;;;;;;;4985738;28;20195;-68
2021/06/02 11:53:16;;;;;;;1.88;1.05;;;;;;;;;;4988665;28;20589;-68
2021/06/02 11:55:42;;;;;;;3.88;1.08;;;;;;;;;;4981728;28;20213;-68
2021/06/02 11:58:08;;;;;;;5.65;1.17;;;;;;;;;;4982901;28;20690;-68
2021/06/02 12:00:35;;;;;;;4.40;1.45;;;;;;;;;;4987902;28;20210;-68
2021/06/02 12:03:06;;;;;;;2.97;1.30;;;;;;;;;;4986315;28;20290;-68
2021/06/02 12:05:35;;;;;;;2.85;1.30;;;;;;;;;;4984415;28;20773;-68
2021/06/02 12:08:03;;;;;;;2.17;1.25;;;;;;;;;;4984651;28;20233;-68
2021/06/02 12:10:43;;;;;;;2.20;1.20;;;;;;;;;;4988871;28;20200;-68
2021/06/02 12:13:15;;;;;;;2.97;1.20;;;;;;;;;;4988107;28;20782;-68
2021/06/02 12:15:43;;;;;;;4.88;1.40;;;;;;;;;;5023756;28;20222;-69
2021/06/02 12:18:09;;;;;;;3.05;1.15;;;;;;;;;;5028480;28;20176;-68
2021/06/02 12:20:36;;;;;;;3.60;1.25;;;;;;;;;;5022991;28;20674;-69
2021/06/02 12:23:03;;;;;;;2.08;1.10;;;;;;;;;;5026348;28;20183;-68
2021/06/02 12:25:29;;;;;;;4.40;1.23;;;;;;;;;;5029199;28;20232;-68
2021/06/02 12:27:57;;;;;;;4.55;1.05;;;;;;;;;;5025804;28;20671;-68
2021/06/02 12:30:27;;;;;;;5.78;1.30;;;;;;;;;;5025152;28;20412;-68
2021/06/02 12:32:57;;;;;;;4.57;1.15;;;;;;;;;;5026014;28;20203;-68
2021/06/02 12:35:30;;;;;;;2.05;1.30;;;;;;;;;;5027696;28;20218;-68
2021/06/02 12:38:01;;;;;;;3.78;1.30;;;;;;;;;;5004478;28;20180;-68
2021/06/02 12:40:28;;;;;;;3.33;1.38;;;;;;;;;;5024799;28;20602;-68
2021/06/02 12:42:54;;;;;;;1.98;1.02;;;;;;;;;;5026945;28;20187;-68
2021/06/02 12:45:28;;;;;;;4.45;1.30;;;;;;;;;;5028339;28;20269;-68
2021/06/02 12:47:55;;;;;;;2.47;1.20;;;;;;;;;;5021287;28;20183;-68
2021/06/02 12:50:41;;;;;;;1.98;1.20;;;;;;;;;;5026183;28;20214;-68
2021/06/02 12:53:07;;;;;;;2.10;1.40;;;;;;;;;;5027494;28;20194;-68
2021/06/02 12:55:34;;;;;;;3.15;1.42;;;;;;;;;;5025983;28;20207;-68
2021/06/02 12:58:02;;;;;;;3.13;1.17;;;;;;;;;;5023789;28;20337;-68
2021/06/02 13:00:28;;;;;;;2.95;1.30;;;;;;;;;;5027148;28;20180;-68
2021/06/02 13:02:54;;;;;;;5.38;1.40;;;;;;;;;;5028091;28;20275;-68
2021/06/02 13:05:21;;;;;;;3.17;1.60;;;;;;;;;;5022605;28;20684;-68
2021/06/02 13:07:47;;;;;;;2.05;1.33;;;;;;;;;;5023009;28;20662;-68
2021/06/02 13:10:13;;;;;;;3.03;1.30;;;;;;;;;;5026879;28;20184;-67
2021/06/02 13:12:49;;;;;;;3.00;1.52;;;;;;;;;;5025211;28;20718;-68
2021/06/02 13:15:25;;;;;;;2.30;1.20;;;;;;;;;;5021574;28;20215;-70
2021/06/02 13:17:51;;;;;;;2.97;1.15;;;;;;;;;;5024185;28;20180;-70
2021/06/02 13:20:36;;;;;;;3.95;1.33;;;;;;;;;;5021986;28;20195;-70
2021/06/02 13:23:11;;;;;;;2.25;1.20;;;;;;;;;;5022170;28;20568;-67
2021/06/02 13:25:37;;;;;;;3.10;1.45;;;;;;;;;;5010630;28;20203;-68
2021/06/02 13:28:04;;;;;;;8.60;1.63;;;;;;;;;;5024805;28;20192;-71
2021/06/02 13:30:56;;;;;;;3.45;1.38;;;;;;;;;;5024214;28;20184;-70
2021/06/02 13:33:22;;;;;;;1.23;1.00;;;;;;;;;;5018849;28;20203;-70
2021/06/02 13:36:01;;;;;;;2.83;1.52;;;;;;;;;;5026540;28;20234;-70
2021/06/02 13:38:27;;;;;;;2.45;1.55;;;;;;;;;;5022953;28;20558;-70
2021/06/02 13:40:53;;;;;;;4.32;1.60;;;;;;;;;;5023644;28;20658;-68
2021/06/02 13:43:19;;;;;;;4.78;1.90;;;;;;;;;;5026432;28;20275;-71
2021/06/02 13:45:46;;;;;;;4.10;1.40;;;;;;;;;;5023271;28;20278;-70
2021/06/02 13:48:26;;;;;;;2.58;1.67;;;;;;;;;;5025557;28;20176;-68
2021/06/02 13:51:07;;;;;;;4.57;1.50;;;;;;;;;;5021981;28;20271;-68
2021/06/02 13:53:33;;;;;;;3.80;1.40;;;;;;;;;;5026743;28;20188;-67
2021/06/02 13:55:59;;;;;;;2.80;1.40;;;;;;;;;;5027444;28;20207;-70
2021/06/02 13:58:25;;;;;;;3.75;1.25;;;;;;;;;;5022717;28;20180;-70
2021/06/02 14:00:51;;;;;;;1.80;1.30;;;;;;;;;;5025383;28;20668;-70
2021/06/02 14:03:17;;;;;;;2.38;1.50;;;;;;;;;;5026324;28;20232;-70
2021/06/02 14:05:43;;;;;;;3.20;1.42;;;;;;;;;;5024135;28;20290;-70
2021/06/02 14:08:09;;;;;;;4.05;1.50;;;;;;;;;;5025214;28;20193;-70
2021/06/02 14:10:35;;;;;;;2.20;1.52;;;;;;;;;;5025016;28;20678;-69
2021/06/02 14:13:01;;;;;;;3.83;1.45;;;;;;;;;;5026052;28;20184;-69
2021/06/02 14:15:27;;;;;;;3.83;1.30;;;;;;;;;;5022249;28;20211;-69
2021/06/02 14:17:53;;;;;;;3.00;1.65;;;;;;;;;;5027016;28;20643;-70
2021/06/02 14:20:19;;;;;;;5.00;1.45;;;;;;;;;;5024231;28;20235;-69
2021/06/02 14:22:45;;;;;;;4.03;1.40;;;;;;;;;;5024306;28;20694;-70
2021/06/02 14:25:16;;;;;;;2.80;1.33;;;;;;;;;;5024382;28;20227;-69
2021/06/02 14:27:42;;;;;;;3.05;1.50;;;;;;;;;;5026326;28;20176;-69
2021/06/02 14:30:08;;;;;;;2.30;1.17;;;;;;;;;;5022054;28;20260;-69
2021/06/02 14:32:34;;;;;;;5.72;1.50;;;;;;;;;;5022298;28;20199;-70
2021/06/02 14:35:00;;;;;;;4.18;2.47;;;;;;;;;;5024364;28;20208;-69
2021/06/02 14:37:27;;;;;;;2.53;2.00;;;;;;;;;;5027586;28;20710;-70
2021/06/02 14:39:57;;;;;;;6.15;2.95;;;;;;;;;;5018983;28;20204;-70
2021/06/02 14:42:23;;;;;;;4.90;2.22;;;;;;;;;;5025623;28;20188;-70
2021/06/02 14:44:49;;;;;;;2.95;1.70;;;;;;;;;;5009232;28;20558;-70
2021/06/02 14:47:15;;;;;;;2.95;1.38;;;;;;;;;;5023626;28;20736;-70
2021/06/02 14:49:41;;;;;;;3.72;1.65;;;;;;;;;;5021292;28;20558;-70
2021/06/02 14:52:07;;;;;;;3.03;1.30;;;;;;;;;;5026700;28;20189;-70
2021/06/02 14:54:33;;;;;;;3.85;1.40;;;;;;;;;;5024942;28;20272;-70
2021/06/02 14:56:59;;;;;;;1.88;1.50;;;;;;;;;;5023830;28;20190;-70
2021/06/02 14:59:26;;;;;;;4.10;1.75;;;;;;;;;;5026377;28;20181;-69
2021/06/02 15:01:52;;;;;;;2.55;1.85;;;;;;;;;;5025030;28;20261;-70
2021/06/02 15:04:18;;;;;;;2.17;1.48;;;;;;;;;;5024422;28;20192;-70